Time;durP1;ratioP1;P1;durP2;ratioP2;P2;SDS_P1;SDS_P2;PMS_P1;PMS_P2;Temp;Humidity;BMP_temperature;BMP_pressure;BME280_temperature;BME280_humidity;BME280_pressure;Samples;Min_cycle;Max_cycle;Signal;HPM_P1;HPM_P2
2022/11/06 00:02:14;;;;;;;47.00;20.60;;;;;;;2.68;88.16;100742.73;102693;1284;22647;-63
2022/11/06 00:04:45;;;;;;;51.70;20.60;;;;;;;2.65;88.13;100742.71;102802;1277;22566;-63
2022/11/06 00:07:17;;;;;;;51.50;20.20;;;;;;;2.61;88.22;100748.83;102837;1284;24339;-62
2022/11/06 00:09:49;;;;;;;46.90;20.90;;;;;;;2.58;88.14;100748.62;102735;1279;26721;-62
2022/11/06 00:12:21;;;;;;;39.90;19.60;;;;;;;2.58;88.04;100751.77;102823;1284;22480;-62
2022/11/06 00:14:52;;;;;;;51.20;20.90;;;;;;;2.54;88.06;100754.34;102824;1284;22476;-62
2022/11/06 00:17:24;;;;;;;43.60;18.60;;;;;;;2.52;88.00;100760.83;103168;1274;22542;-63
2022/11/06 00:19:56;;;;;;;46.20;21.20;;;;;;;2.48;88.06;100758.65;103083;1281;26670;-63
2022/11/06 00:22:28;;;;;;;51.90;22.00;;;;;;;2.46;88.17;100759.87;103121;1274;25275;-63
2022/11/06 00:24:59;;;;;;;48.10;20.90;;;;;;;2.44;88.14;100760.05;103108;1281;25883;-63
2022/11/06 00:27:31;;;;;;;56.40;21.80;;;;;;;2.42;88.23;100763.84;103095;1274;22472;-63
2022/11/06 00:30:06;;;;;;;49.70;23.40;;;;;;;2.40;88.23;100769.15;103111;1281;22496;-63
2022/11/06 00:32:37;;;;;;;56.10;22.70;;;;;;;2.38;88.26;100776.16;103232;1281;22477;-63
2022/11/06 00:35:11;;;;;;;52.00;23.30;;;;;;;2.36;88.36;100767.30;103232;1279;24581;-64
2022/11/06 00:37:42;;;;;;;56.70;24.90;;;;;;;2.33;88.27;100766.70;103065;1290;22744;-63
2022/11/06 00:40:16;;;;;;;62.10;26.00;;;;;;;2.30;88.12;100765.95;103117;1281;22872;-62
2022/11/06 00:42:47;;;;;;;53.10;23.00;;;;;;;2.28;88.06;100771.88;103160;1274;22477;-63
2022/11/06 00:45:19;;;;;;;50.70;22.00;;;;;;;2.25;87.96;100775.13;102995;1281;22580;-62
2022/11/06 00:47:51;;;;;;;61.60;25.10;;;;;;;2.21;87.83;100775.17;103033;1274;25282;-63
2022/11/06 00:50:25;;;;;;;52.60;21.90;;;;;;;2.18;87.83;100774.33;103121;1271;25253;-63
2022/11/06 00:52:56;;;;;;;50.80;22.60;;;;;;;2.16;87.85;100770.91;103066;1279;22469;-63
2022/11/06 00:55:28;;;;;;;50.50;22.40;;;;;;;2.13;87.92;100771.25;103064;1274;22701;-63
2022/11/06 00:58:00;;;;;;;52.40;21.00;;;;;;;2.10;87.88;100770.64;103163;1281;22537;-63
2022/11/06 01:00:31;;;;;;;46.30;21.40;;;;;;;2.07;87.99;100768.33;103144;1282;22467;-63
2022/11/06 01:03:03;;;;;;;46.20;19.50;;;;;;;2.04;88.00;100769.05;103195;1297;24337;-63
2022/11/06 01:05:36;;;;;;;45.10;17.70;;;;;;;2.02;88.03;100769.85;103055;1304;22478;-63
2022/11/06 01:08:07;;;;;;;51.70;17.40;;;;;;;2.00;87.94;100773.81;103041;1274;24319;-62
2022/11/06 01:10:40;;;;;;;40.60;16.10;;;;;;;1.97;87.90;100775.11;103095;1281;24257;-63
2022/11/06 01:13:11;;;;;;;47.70;17.70;;;;;;;1.95;87.93;100771.11;103045;1280;25349;-62
2022/11/06 01:15:43;;;;;;;48.30;18.90;;;;;;;1.92;87.97;100770.73;103086;1303;22505;-63
2022/11/06 01:18:15;;;;;;;51.70;20.90;;;;;;;1.91;87.99;100771.94;103130;1273;22486;-62
2022/11/06 01:20:47;;;;;;;47.00;19.10;;;;;;;1.89;88.01;100772.74;103260;1274;23111;-62
2022/11/06 01:23:19;;;;;;;52.80;21.60;;;;;;;1.86;88.06;100776.55;103098;1279;22469;-61
2022/11/06 01:26:00;;;;;;;64.20;24.20;;;;;;;1.84;88.39;100782.23;103102;1281;23934;-62
2022/11/06 01:28:32;;;;;;;60.70;23.70;;;;;;;1.85;88.62;100782.92;103258;1274;24360;-63
2022/11/06 01:31:06;;;;;;;55.20;22.60;;;;;;;1.85;88.50;100782.45;103199;1272;22466;-62
2022/11/06 01:33:38;;;;;;;77.30;26.90;;;;;;;1.85;88.65;100783.31;103125;1281;25134;-63
2022/11/06 01:36:14;;;;;;;66.10;25.90;;;;;;;1.85;88.87;100780.41;103132;1281;25314;-62
2022/11/06 01:38:47;;;;;;;67.50;25.50;;;;;;;1.83;88.57;100781.30;103118;1283;24279;-62
2022/11/06 01:41:22;;;;;;;64.30;25.40;;;;;;;1.79;88.45;100776.77;103152;1275;22488;-62
2022/11/06 01:43:55;;;;;;;74.00;27.50;;;;;;;1.75;88.36;100771.38;103148;1279;25313;-62
2022/11/06 01:46:28;;;;;;;70.30;25.70;;;;;;;1.69;88.34;100769.52;103192;1275;23080;-62
2022/11/06 01:49:03;;;;;;;74.00;27.90;;;;;;;1.64;88.24;100768.07;103121;1274;22503;-61
2022/11/06 01:51:39;;;;;;;70.80;27.80;;;;;;;1.61;88.19;100762.04;103106;1274;24926;-63
2022/11/06 01:54:13;;;;;;;69.10;27.60;;;;;;;1.56;88.19;100767.66;103260;1304;24954;-62
2022/11/06 01:56:48;;;;;;;65.00;28.10;;;;;;;1.53;88.25;100768.80;103279;1281;22819;-62
2022/11/06 01:59:23;;;;;;;67.60;27.50;;;;;;;1.50;88.28;100773.39;103072;1281;25485;-62
2022/11/06 02:01:56;;;;;;;69.40;25.00;;;;;;;1.48;88.51;100777.48;103042;1281;22513;-62
2022/11/06 02:04:32;;;;;;;67.00;29.00;;;;;;;1.47;88.53;100775.45;103105;1273;22461;-62
2022/11/06 02:07:05;;;;;;;63.50;26.60;;;;;;;1.45;88.63;100774.73;103039;1281;22459;-62
2022/11/06 02:09:36;;;;;;;68.90;27.30;;;;;;;1.44;88.53;100773.27;103055;1281;22468;-62
2022/11/06 02:12:18;;;;;;;72.30;27.80;;;;;;;1.41;88.59;100771.70;102930;1294;24393;-62
2022/11/06 02:15:01;;;;;;;70.00;26.40;;;;;;;1.39;88.44;100773.63;103026;1281;26656;-63
2022/11/06 02:17:45;;;;;;;74.80;27.70;;;;;;;1.37;88.40;100770.09;103187;1280;22734;-62
2022/11/06 02:20:23;;;;;;;81.00;30.50;;;;;;;1.33;88.43;100779.40;103066;1280;25316;-63
2022/11/06 02:23:08;;;;;;;71.80;28.20;;;;;;;1.32;88.66;100785.61;103083;1274;24351;-62
2022/11/06 02:25:50;;;;;;;69.50;25.60;;;;;;;1.30;88.75;100780.45;103196;1274;22474;-62
2022/11/06 02:28:26;;;;;;;73.60;27.30;;;;;;;1.27;88.44;100778.19;103107;1279;26681;-62
2022/11/06 02:31:02;;;;;;;71.00;27.20;;;;;;;1.25;88.70;100783.62;103039;1274;24292;-62
2022/11/06 02:33:37;;;;;;;72.70;27.50;;;;;;;1.23;88.65;100785.36;103054;1281;25337;-63
2022/11/06 02:36:14;;;;;;;77.50;29.60;;;;;;;1.21;88.86;100781.91;103027;1281;22478;-62
2022/11/06 02:38:50;;;;;;;71.40;28.70;;;;;;;1.23;89.22;100781.35;103070;1304;22868;-62
2022/11/06 02:41:25;;;;;;;64.50;25.60;;;;;;;1.22;89.09;100776.80;103108;1281;24371;-62
2022/11/06 02:43:58;;;;;;;74.20;29.00;;;;;;;1.20;88.99;100775.55;103052;1279;22523;-63
2022/11/06 02:46:35;;;;;;;65.70;26.70;;;;;;;1.19;89.04;100773.59;103094;1281;22935;-63
2022/11/06 02:49:12;;;;;;;72.20;27.10;;;;;;;1.17;88.92;100771.48;103121;1274;22495;-63
2022/11/06 02:51:49;;;;;;;65.90;24.70;;;;;;;1.14;88.90;100769.55;103139;1274;24361;-62
2022/11/06 02:54:23;;;;;;;64.30;23.00;;;;;;;1.12;88.82;100778.04;103173;1274;23630;-62
2022/11/06 02:57:01;;;;;;;46.40;19.10;;;;;;;1.11;88.94;100776.33;103120;1271;23213;-62
2022/11/06 02:59:40;;;;;;;54.60;20.80;;;;;;;1.09;89.04;100779.94;103224;1274;25562;-61
2022/11/06 03:02:18;;;;;;;55.90;20.90;;;;;;;1.09;89.18;100778.05;103098;1274;24426;-61
2022/11/06 03:04:54;;;;;;;54.00;21.10;;;;;;;1.08;89.28;100778.93;103031;1274;24342;-62
2022/11/06 03:07:31;;;;;;;43.40;19.20;;;;;;;1.06;89.40;100772.89;103013;1304;22480;-62
2022/11/06 03:10:04;;;;;;;46.80;19.90;;;;;;;1.06;89.39;100769.98;103038;1299;23389;-62
2022/11/06 03:12:45;;;;;;;52.00;19.40;;;;;;;1.04;89.34;100773.77;103254;1297;25287;-62
2022/11/06 03:15:23;;;;;;;42.20;18.00;;;;;;;1.02;89.25;100775.98;103203;1305;25565;-62
2022/11/06 03:18:02;;;;;;;47.30;18.90;;;;;;;1.01;89.31;100778.81;103049;1304;25117;-62
2022/11/06 03:20:40;;;;;;;58.40;20.40;;;;;;;1.00;89.27;100784.23;102908;1305;22467;-62
2022/11/06 03:23:19;;;;;;;57.30;22.90;;;;;;;1.00;89.19;100786.43;102901;1304;24453;-63
2022/11/06 03:25:56;;;;;;;55.80;22.10;;;;;;;0.98;89.30;100780.70;102999;1281;24199;-63
2022/11/06 03:28:35;;;;;;;55.90;23.00;;;;;;;0.98;89.40;100781.27;103048;1274;23033;-63
2022/11/06 03:31:12;;;;;;;65.50;28.40;;;;;;;0.98;89.37;100778.52;103037;1305;22579;-63
2022/11/06 03:33:48;;;;;;;57.00;23.50;;;;;;;0.98;89.45;100776.39;102990;1305;22478;-63
2022/11/06 03:36:23;;;;;;;52.50;23.30;;;;;;;0.99;89.59;100779.14;102946;1281;26639;-63
2022/11/06 03:38:59;;;;;;;46.70;18.40;;;;;;;1.00;89.65;100777.09;103409;1305;25357;-62
2022/11/06 03:41:38;;;;;;;48.00;19.20;;;;;;;1.02;89.90;100774.33;102913;1304;25362;-61
2022/11/06 03:44:13;;;;;;;45.70;18.70;;;;;;;1.08;90.17;100773.42;103076;1274;24298;-61
2022/11/06 03:46:48;;;;;;;46.00;19.00;;;;;;;1.11;89.99;100776.95;102903;1297;24298;-62
2022/11/06 03:49:25;;;;;;;52.50;22.80;;;;;;;1.11;89.92;100779.45;103014;1273;25273;-62
2022/11/06 03:52:02;;;;;;;57.80;24.00;;;;;;;1.10;90.00;100777.66;103075;1281;22472;-62
2022/11/06 03:54:40;;;;;;;52.40;22.70;;;;;;;1.09;89.93;100777.66;103027;1273;24434;-62
2022/11/06 03:57:14;;;;;;;54.40;23.10;;;;;;;1.08;89.92;100775.87;103001;1282;23324;-62
2022/11/06 03:59:50;;;;;;;56.80;25.20;;;;;;;1.06;90.05;100780.34;103055;1300;25312;-61
2022/11/06 04:02:23;;;;;;;53.90;22.40;;;;;;;1.06;90.11;100784.44;103002;1288;22460;-62
2022/11/06 04:04:58;;;;;;;50.20;21.50;;;;;;;1.06;90.03;100781.85;102976;1305;22444;-62
2022/11/06 04:07:35;;;;;;;44.70;20.20;;;;;;;1.04;89.96;100784.36;103067;1305;22616;-62
2022/11/06 04:15:54;;;;;;;53.30;21.40;;;;;;;0.98;89.87;100784.02;102990;1281;24350;-62
2022/11/06 04:18:25;;;;;;;47.80;20.30;;;;;;;0.96;89.96;100784.89;103010;1273;22466;-62
2022/11/06 04:21:24;;;;;;;49.20;20.80;;;;;;;0.94;89.85;100780.50;103103;1304;25317;-62
2022/11/06 04:27:23;;;;;;;51.40;20.40;;;;;;;0.90;89.89;100764.04;102994;1279;24463;-62
2022/11/06 04:30:07;;;;;;;48.90;19.20;;;;;;;0.88;89.87;100759.16;103068;1281;24435;-62
2022/11/06 04:33:05;;;;;;;46.50;18.80;;;;;;;0.85;89.94;100763.81;103040;1303;22471;-62
2022/11/06 04:35:52;;;;;;;49.00;20.70;;;;;;;0.83;89.94;100767.20;103007;1289;25865;-62
2022/11/06 04:38:32;;;;;;;51.90;20.20;;;;;;;0.82;90.01;100773.27;102916;1273;23055;-63
2022/11/06 04:41:18;;;;;;;53.80;19.40;;;;;;;0.81;90.07;100775.70;103064;1281;22497;-63
2022/11/06 04:43:54;;;;;;;50.00;18.20;;;;;;;0.79;90.10;100776.48;103252;1281;22525;-63
2022/11/06 04:46:30;;;;;;;49.50;21.60;;;;;;;0.78;90.08;100775.79;102992;1304;24340;-63
2022/11/06 04:49:05;;;;;;;45.20;18.30;;;;;;;0.76;90.00;100777.21;103023;1281;25222;-62
2022/11/06 04:51:38;;;;;;;45.50;18.80;;;;;;;0.76;90.37;100772.35;103115;1281;22477;-62
2022/11/06 04:54:11;;;;;;;48.50;20.10;;;;;;;0.78;90.53;100770.14;103204;1281;25339;-61
2022/11/06 04:56:42;;;;;;;39.20;16.40;;;;;;;0.78;90.56;100768.17;103162;1303;25264;-62
2022/11/06 04:59:16;;;;;;;47.90;18.40;;;;;;;0.78;90.36;100772.80;103069;1274;25394;-62
2022/11/06 05:01:48;;;;;;;48.60;19.30;;;;;;;0.78;90.45;100773.66;103017;1276;22487;-62
2022/11/06 05:04:20;;;;;;;45.40;19.30;;;;;;;0.79;90.47;100770.83;103017;1301;22559;-62
2022/11/06 05:06:51;;;;;;;46.50;19.50;;;;;;;0.80;90.59;100769.83;103092;1305;23683;-62
2022/11/06 05:09:23;;;;;;;39.80;16.50;;;;;;;0.81;90.58;100771.84;103021;1273;24734;-62
2022/11/06 05:11:54;;;;;;;42.00;16.00;;;;;;;0.81;90.49;100776.48;103172;1298;25299;-62
2022/11/06 05:14:26;;;;;;;42.10;18.50;;;;;;;0.80;90.47;100780.89;103278;1281;25227;-62
2022/11/06 05:16:57;;;;;;;52.20;19.50;;;;;;;0.78;90.44;100782.85;103230;1304;26497;-63
2022/11/06 05:19:29;;;;;;;47.60;18.30;;;;;;;0.79;90.52;100786.94;103151;1297;22457;-62
2022/11/06 05:24:49;;;;;;;42.30;18.90;;;;;;;0.76;90.51;100780.29;103016;1291;22923;-62
2022/11/06 05:27:21;;;;;;;46.70;18.20;;;;;;;0.76;90.45;100777.84;103166;1303;22473;-62
2022/11/06 05:29:53;;;;;;;43.30;18.50;;;;;;;0.74;90.38;100770.48;103236;1279;22460;-62
2022/11/06 05:32:24;;;;;;;46.40;19.10;;;;;;;0.71;90.27;100768.98;103189;1296;22468;-62
2022/11/06 05:34:55;;;;;;;42.60;18.60;;;;;;;0.70;90.41;100770.86;103176;1303;22576;-62
2022/11/06 05:37:27;;;;;;;48.40;20.60;;;;;;;0.70;90.51;100770.89;103181;1274;24219;-62
2022/11/06 05:39:59;;;;;;;51.30;19.70;;;;;;;0.68;90.43;100772.86;103239;1281;24340;-62
2022/11/06 05:42:32;;;;;;;44.60;20.10;;;;;;;0.66;90.46;100773.88;103174;1280;22461;-63
2022/11/06 05:45:04;;;;;;;55.60;19.80;;;;;;;0.65;90.48;100774.75;103254;1274;22462;-63
2022/11/06 05:47:35;;;;;;;48.90;19.20;;;;;;;0.65;90.53;100775.84;103239;1283;22480;-62
2022/11/06 05:50:08;;;;;;;49.20;18.60;;;;;;;0.64;90.52;100779.06;103193;1278;25397;-63
2022/11/06 05:52:40;;;;;;;49.10;18.90;;;;;;;0.63;90.47;100779.39;103267;1303;25568;-62
2022/11/06 05:55:12;;;;;;;54.40;20.00;;;;;;;0.62;90.42;100776.88;103151;1281;25256;-62
2022/11/06 05:57:45;;;;;;;48.00;19.20;;;;;;;0.61;90.53;100777.83;103402;1281;24307;-62
2022/11/06 06:00:18;;;;;;;44.10;17.60;;;;;;;0.60;90.43;100775.31;103262;1291;25633;-61
2022/11/06 06:02:50;;;;;;;44.90;18.10;;;;;;;0.61;90.51;100778.77;103227;1298;24445;-62
2022/11/06 06:05:21;;;;;;;46.00;18.90;;;;;;;0.61;90.51;100778.06;103230;1303;22845;-62
2022/11/06 06:07:52;;;;;;;52.80;19.30;;;;;;;0.61;90.45;100779.46;103083;1305;25339;-62
2022/11/06 06:10:24;;;;;;;44.20;19.70;;;;;;;0.62;90.47;100783.55;103296;1281;24361;-62
2022/11/06 06:12:55;;;;;;;45.20;18.10;;;;;;;0.63;90.70;100781.90;103224;1303;25263;-62
2022/11/06 06:15:27;;;;;;;45.50;19.70;;;;;;;0.64;90.68;100782.83;103229;1304;22468;-62
2022/11/06 06:17:59;;;;;;;41.50;17.90;;;;;;;0.65;90.74;100785.19;103265;1304;22490;-61
2022/11/06 06:20:30;;;;;;;38.00;17.70;;;;;;;0.69;91.12;100786.27;103194;1282;24337;-61
2022/11/06 06:23:02;;;;;;;40.30;19.90;;;;;;;0.72;91.11;100785.08;103139;1280;22757;-61
2022/11/06 06:25:33;;;;;;;40.30;18.90;;;;;;;0.74;91.08;100785.07;103086;1304;22466;-62
2022/11/06 06:28:07;;;;;;;50.90;23.10;;;;;;;0.77;91.16;100790.71;103289;1281;25107;-62
2022/11/06 06:30:41;;;;;;;53.60;26.90;;;;;;;0.82;91.15;100794.39;103195;1281;22874;-62
2022/11/06 06:33:13;;;;;;;46.70;20.90;;;;;;;0.82;90.98;100798.23;103159;1291;24948;-63
2022/11/06 06:35:45;;;;;;;45.60;21.60;;;;;;;0.82;91.00;100804.67;103268;1283;24277;-63
2022/11/06 06:38:16;;;;;;;79.90;38.70;;;;;;;0.83;91.06;100802.78;103263;1279;22471;-63
2022/11/06 06:40:48;;;;;;;154.40;81.00;;;;;;;0.86;91.32;100797.91;103335;1281;24363;-64
2022/11/06 06:43:19;;;;;;;124.00;63.50;;;;;;;0.89;91.53;100797.88;103355;1303;25458;-63
2022/11/06 06:45:50;;;;;;;82.90;41.80;;;;;;;0.93;91.69;100796.52;103200;1303;22481;-63
2022/11/06 06:48:23;;;;;;;66.20;28.40;;;;;;;0.95;91.57;100803.44;103260;1281;23895;-63
2022/11/06 06:50:56;;;;;;;66.00;28.70;;;;;;;0.96;91.54;100799.02;103189;1281;22448;-63
2022/11/06 06:53:28;;;;;;;74.10;30.70;;;;;;;0.98;91.61;100795.95;103577;1281;25384;-65
2022/11/06 06:56:01;;;;;;;90.50;44.60;;;;;;;0.99;91.65;100799.56;103359;1305;23063;-63
2022/11/06 06:58:33;;;;;;;92.10;45.60;;;;;;;1.02;91.64;100802.21;103352;1281;22480;-63
2022/11/06 07:01:09;;;;;;;76.20;36.00;;;;;;;1.03;91.66;100804.02;103642;1275;22471;-62
2022/11/06 07:03:41;;;;;;;58.80;29.70;;;;;;;1.04;91.73;100806.67;104045;1282;22604;-59
2022/11/06 07:06:13;;;;;;;59.80;30.10;;;;;;;1.05;91.70;100805.10;103368;1303;25263;-64
2022/11/06 07:08:45;;;;;;;94.50;38.40;;;;;;;1.06;91.82;100806.75;103435;1282;22497;-61
2022/11/06 07:11:17;;;;;;;150.80;52.00;;;;;;;1.07;91.92;100803.29;103581;1281;22521;-62
2022/11/06 07:13:48;;;;;;;207.30;75.00;;;;;;;1.10;92.00;100802.80;103282;1304;22475;-62
2022/11/06 07:16:20;;;;;;;207.50;76.60;;;;;;;1.12;92.18;100800.98;103390;1303;25790;-62
2022/11/06 07:18:52;;;;;;;185.50;69.30;;;;;;;1.15;92.24;100796.09;103408;1282;23620;-65
2022/11/06 07:21:23;;;;;;;171.50;62.30;;;;;;;1.20;92.38;100797.56;103277;1274;22476;-60
2022/11/06 07:23:55;;;;;;;148.10;56.20;;;;;;;1.24;92.48;100803.98;103390;1303;22470;-63
2022/11/06 07:26:26;;;;;;;148.90;55.90;;;;;;;1.26;92.57;100800.41;103329;1304;25228;-63
2022/11/06 07:28:58;;;;;;;134.60;50.90;;;;;;;1.29;92.74;100798.77;103532;1303;24362;-62
2022/11/06 07:31:33;;;;;;;125.50;47.60;;;;;;;1.33;92.87;100800.23;103506;1273;22517;-60
2022/11/06 07:34:04;;;;;;;125.40;43.90;;;;;;;1.36;92.89;100804.76;103420;1281;24249;-60
2022/11/06 07:36:36;;;;;;;111.70;44.50;;;;;;;1.39;92.95;100797.75;103804;1295;25274;-58
2022/11/06 07:39:08;;;;;;;108.00;40.60;;;;;;;1.42;93.00;100794.74;105133;1288;26505;-59
2022/11/06 07:41:39;;;;;;;91.60;37.00;;;;;;;1.46;93.10;100793.52;103580;1306;22597;-64
2022/11/06 07:44:11;;;;;;;82.30;33.50;;;;;;;1.50;93.27;100791.53;103384;1281;23210;-60
2022/11/06 07:46:42;;;;;;;100.60;37.80;;;;;;;1.54;93.33;100792.05;103449;1305;22475;-59
2022/11/06 07:49:14;;;;;;;111.10;44.50;;;;;;;1.59;93.49;100790.13;103453;1282;25380;-58
2022/11/06 07:51:46;;;;;;;99.70;39.50;;;;;;;1.63;93.77;100789.16;103416;1274;22906;-59
2022/11/06 07:54:18;;;;;;;92.90;40.40;;;;;;;1.69;93.98;100787.55;103522;1305;26518;-60
2022/11/06 07:56:50;;;;;;;88.60;36.80;;;;;;;1.75;93.96;100786.39;103535;1305;25275;-59
2022/11/06 07:59:22;;;;;;;88.30;38.20;;;;;;;1.79;94.05;100787.14;103525;1299;24211;-60
2022/11/06 08:01:54;;;;;;;94.60;38.10;;;;;;;1.84;94.32;100790.02;103506;1297;22842;-63
2022/11/06 08:04:25;;;;;;;90.60;36.20;;;;;;;1.91;94.82;100795.78;103334;1282;25540;-61
2022/11/06 08:06:58;;;;;;;79.70;33.00;;;;;;;1.98;95.08;100798.85;103944;1287;24066;-60
2022/11/06 08:09:30;;;;;;;77.60;33.60;;;;;;;2.04;95.19;100802.02;103377;1283;22606;-65
2022/11/06 08:12:01;;;;;;;78.40;32.80;;;;;;;2.13;95.35;100808.46;103505;1306;22434;-61
2022/11/06 08:14:33;;;;;;;104.30;45.60;;;;;;;2.19;95.21;100799.05;103552;1282;23510;-60
2022/11/06 08:17:05;;;;;;;102.00;43.90;;;;;;;2.28;95.89;100798.64;103543;1274;24260;-62
2022/11/06 08:19:36;;;;;;;90.10;40.60;;;;;;;2.36;96.05;100797.45;103518;1303;22492;-60
2022/11/06 08:22:09;;;;;;;73.70;33.40;;;;;;;2.44;96.25;100800.59;103553;1305;22551;-59
2022/11/06 08:24:40;;;;;;;68.10;27.80;;;;;;;2.54;96.68;100797.34;103688;1306;22523;-59
2022/11/06 08:27:12;;;;;;;57.90;25.00;;;;;;;2.63;96.76;100802.59;103481;1284;22493;-61
2022/11/06 08:29:44;;;;;;;49.40;22.20;;;;;;;2.71;96.86;100799.64;103604;1281;22492;-60
2022/11/06 08:32:15;;;;;;;48.20;21.20;;;;;;;2.80;97.01;100797.65;103600;1281;22491;-60
2022/11/06 08:34:47;;;;;;;44.20;19.60;;;;;;;2.89;97.26;100801.63;103584;1290;22484;-59
2022/11/06 08:37:20;;;;;;;43.30;19.90;;;;;;;2.98;97.38;100801.67;103456;1302;24275;-61
2022/11/06 08:39:51;;;;;;;49.10;20.70;;;;;;;3.06;97.36;100796.36;105514;1305;25423;-60
2022/11/06 08:42:23;;;;;;;52.70;26.00;;;;;;;3.15;97.60;100791.69;103492;1306;22520;-61
2022/11/06 08:44:54;;;;;;;78.70;34.80;;;;;;;3.25;97.93;100788.29;103610;1304;22480;-60
2022/11/06 08:47:27;;;;;;;74.50;38.40;;;;;;;3.36;98.03;100781.66;103538;1281;22586;-59
2022/11/06 08:49:58;;;;;;;90.40;49.20;;;;;;;3.47;98.18;100784.98;103411;1305;22638;-61
2022/11/06 08:52:30;;;;;;;76.40;39.10;;;;;;;3.56;98.29;100784.44;103454;1305;25355;-58
2022/11/06 08:55:01;;;;;;;70.10;35.80;;;;;;;3.65;98.42;100782.01;103652;1305;22480;-59
2022/11/06 08:57:33;;;;;;;72.10;33.00;;;;;;;3.76;98.43;100784.98;103493;1282;25318;-59
2022/11/06 09:00:06;;;;;;;62.10;30.70;;;;;;;3.84;98.37;100788.70;103527;1290;25299;-60
2022/11/06 09:02:37;;;;;;;63.40;28.60;;;;;;;3.92;98.45;100791.57;103568;1280;22504;-59
2022/11/06 09:05:10;;;;;;;67.10;34.90;;;;;;;4.04;99.17;100788.69;103519;1291;24260;-60
2022/11/06 09:07:42;;;;;;;65.90;35.60;;;;;;;4.15;99.14;100793.39;103394;1281;22464;-59
2022/11/06 09:10:14;;;;;;;59.40;32.00;;;;;;;4.24;99.27;100791.33;103816;1306;23964;-61
2022/11/06 09:12:45;;;;;;;68.70;36.60;;;;;;;4.35;99.47;100793.66;103595;1304;22841;-60
2022/11/06 09:15:18;;;;;;;68.40;35.30;;;;;;;4.41;99.05;100792.74;103496;1292;24373;-59
2022/11/06 09:17:51;;;;;;;59.50;30.10;;;;;;;4.49;99.37;100791.34;103653;1305;22490;-60
2022/11/06 09:20:24;;;;;;;60.90;30.10;;;;;;;4.59;99.93;100793.98;103399;1306;22555;-59
2022/11/06 09:23:00;;;;;;;95.00;42.50;;;;;;;4.73;100.00;100791.09;103525;1303;22482;-59
2022/11/06 09:25:35;;;;;;;87.80;43.30;;;;;;;4.83;100.00;100790.34;103314;1281;22467;-59
2022/11/06 09:28:09;;;;;;;70.80;37.60;;;;;;;4.95;100.00;100793.31;103482;1282;24273;-61
2022/11/06 09:30:41;;;;;;;57.50;30.20;;;;;;;5.13;100.00;100788.98;103528;1306;24044;-59
2022/11/06 09:33:13;;;;;;;56.60;29.50;;;;;;;5.29;100.00;100789.09;103407;1283;25353;-61
2022/11/06 09:35:45;;;;;;;56.10;30.00;;;;;;;5.42;100.00;100794.25;103494;1305;24349;-61
2022/11/06 09:38:17;;;;;;;55.80;25.60;;;;;;;5.53;100.00;100790.67;103354;1281;22598;-59
2022/11/06 09:40:55;;;;;;;48.00;24.40;;;;;;;5.61;100.00;100794.13;103579;1297;22485;-59
2022/11/06 09:43:43;;;;;;;50.50;25.10;;;;;;;5.69;100.00;100793.91;103588;1282;22853;-59
2022/11/06 09:46:22;;;;;;;48.60;23.60;;;;;;;5.79;100.00;100791.94;103233;1287;25226;-60
2022/11/06 09:48:59;;;;;;;44.60;19.00;;;;;;;5.90;100.00;100790.84;103425;1280;22490;-60
2022/11/06 09:51:37;;;;;;;39.90;17.70;;;;;;;6.02;100.00;100794.39;103384;1297;23082;-61
2022/11/06 09:54:15;;;;;;;37.70;17.60;;;;;;;6.11;100.00;100788.23;103275;1282;25363;-61
2022/11/06 09:56:50;;;;;;;32.00;16.30;;;;;;;6.20;100.00;100780.46;103466;1305;22723;-60
2022/11/06 09:59:23;;;;;;;40.80;18.80;;;;;;;6.31;100.00;100781.94;103306;1305;22457;-59
2022/11/06 10:02:00;;;;;;;42.20;18.10;;;;;;;6.39;100.00;100781.08;103254;1281;25381;-65
2022/11/06 10:04:40;;;;;;;34.50;16.30;;;;;;;6.44;99.93;100784.98;103289;1296;22475;-59
2022/11/06 10:07:25;;;;;;;30.60;12.70;;;;;;;6.55;100.00;100781.03;103258;1280;22475;-56
2022/11/06 10:10:00;;;;;;;30.70;10.90;;;;;;;6.64;100.00;100770.54;103654;1290;22474;-58
2022/11/06 10:12:41;;;;;;;29.20;10.90;;;;;;;6.71;99.94;100774.14;103879;1282;22485;-59
2022/11/06 10:15:23;;;;;;;27.00;9.20;;;;;;;6.85;100.00;100771.60;103521;1283;22465;-60
2022/11/06 10:18:01;;;;;;;26.10;7.30;;;;;;;6.97;100.00;100767.20;103266;1287;22562;-59
2022/11/06 10:20:41;;;;;;;27.80;7.50;;;;;;;7.12;99.99;100766.73;103903;1274;23585;-61
2022/11/06 10:23:27;;;;;;;19.50;4.40;;;;;;;7.25;99.82;100766.28;103367;1281;22505;-61
2022/11/06 10:26:10;;;;;;;22.70;7.40;;;;;;;7.35;99.64;100763.34;103394;1274;22518;-60
2022/11/06 10:29:06;;;;;;;19.50;4.90;;;;;;;7.45;99.58;100758.81;103157;1305;25928;-61
2022/11/06 10:31:46;;;;;;;18.80;6.60;;;;;;;7.57;99.25;100754.77;103235;1304;305870;-63
2022/11/06 10:34:22;;;;;;;25.40;6.90;;;;;;;7.61;98.92;100754.63;103429;1305;22483;-62
2022/11/06 10:37:00;;;;;;;21.00;4.40;;;;;;;7.67;98.86;100747.21;103451;1302;24293;-59
2022/11/06 10:39:35;;;;;;;18.80;4.50;;;;;;;7.75;98.53;100744.18;103265;1310;25294;-61
2022/11/06 10:42:12;;;;;;;18.30;4.30;;;;;;;7.81;98.19;100738.34;103294;1284;22458;-62
2022/11/06 10:44:49;;;;;;;17.00;4.10;;;;;;;7.87;97.99;100730.89;103619;1283;24451;-64
2022/11/06 10:47:22;;;;;;;14.80;3.30;;;;;;;7.95;97.91;100729.69;103439;1282;25217;-61
2022/11/06 10:49:58;;;;;;;14.90;3.30;;;;;;;7.97;97.59;100727.31;103460;1281;22468;-62
2022/11/06 10:52:46;;;;;;;13.10;2.80;;;;;;;8.01;97.19;100722.89;103370;1280;22493;-60
2022/11/06 10:55:48;;;;;;;22.30;3.30;;;;;;;8.06;97.06;100717.13;103369;1282;22447;-60
2022/11/06 10:58:22;;;;;;;14.00;2.80;;;;;;;8.10;96.72;100708.57;103390;1309;22489;-62
2022/11/06 11:00:59;;;;;;;13.30;2.60;;;;;;;8.16;96.58;100700.75;103353;1304;22468;-60
2022/11/06 11:03:34;;;;;;;17.80;4.20;;;;;;;8.22;96.55;100695.90;103473;1288;22464;-63
2022/11/06 11:06:07;;;;;;;15.20;3.40;;;;;;;8.28;96.43;100690.88;103125;1287;22474;-62
2022/11/06 11:08:41;;;;;;;16.10;2.60;;;;;;;8.35;96.31;100688.40;104554;1282;22585;-62
2022/11/06 11:11:27;;;;;;;12.90;2.00;;;;;;;8.41;96.13;100680.86;103068;1280;22473;-63
2022/11/06 11:14:24;;;;;;;22.40;3.40;;;;;;;8.48;95.93;100675.20;103195;1280;24351;-63
2022/11/06 11:16:59;;;;;;;18.80;3.10;;;;;;;8.55;95.60;100672.30;103281;1287;23292;-62
2022/11/06 11:19:40;;;;;;;11.90;2.10;;;;;;;8.60;95.43;100671.00;103452;1280;23200;-62
2022/11/06 11:22:23;;;;;;;9.50;2.10;;;;;;;8.64;95.28;100666.98;103320;1296;25565;-60
2022/11/06 11:25:06;;;;;;;11.20;2.10;;;;;;;8.66;95.14;100659.23;103516;1286;24472;-59
2022/11/06 11:27:44;;;;;;;13.90;3.20;;;;;;;8.72;95.02;100659.87;103513;1286;25424;-56
2022/11/06 11:30:28;;;;;;;14.80;3.00;;;;;;;8.78;94.94;100657.17;103429;1282;22536;-61
2022/11/06 11:33:01;;;;;;;19.20;4.40;;;;;;;8.82;94.88;100650.39;103272;1288;24256;-62
2022/11/06 11:35:34;;;;;;;20.50;4.10;;;;;;;8.86;94.59;100641.11;103848;1287;22487;-62
2022/11/06 11:38:11;;;;;;;17.90;2.40;;;;;;;8.90;94.50;100637.77;104188;1281;85004;-62
2022/11/06 11:40:43;;;;;;;15.30;3.30;;;;;;;8.92;94.23;100628.71;103658;1281;26481;-61
2022/11/06 11:43:27;;;;;;;16.50;3.20;;;;;;;8.96;94.12;100628.20;102951;1282;25496;-60
2022/11/06 11:46:14;;;;;;;16.70;2.50;;;;;;;9.02;93.90;100628.38;103144;1285;22481;-60
2022/11/06 11:48:49;;;;;;;16.80;3.30;;;;;;;9.06;93.66;100627.19;103218;1283;22415;-59
2022/11/06 11:51:29;;;;;;;13.60;3.20;;;;;;;9.09;93.32;100620.86;103250;1302;25622;-60
2022/11/06 11:54:05;;;;;;;9.30;1.80;;;;;;;9.12;93.04;100608.80;103228;1288;22584;-60
2022/11/06 11:56:45;;;;;;;14.80;1.80;;;;;;;9.18;92.83;100608.00;103225;1303;22584;-59